sensor_id;sensor_type;location;lat;lon;timestamp;temperature;humidity
36444;DHT22;24692;45.642;13.806;2024-02-26T00:01:54;7.60;99.90
36444;DHT22;24692;45.642;13.806;2024-02-26T00:04:20;7.60;99.90
36444;DHT22;24692;45.642;13.806;2024-02-26T00:06:47;7.60;99.90
36444;DHT22;24692;45.642;13.806;2024-02-26T00:09:15;7.60;99.90
36444;DHT22;24692;45.642;13.806;2024-02-26T00:11:40;7.60;99.90
36444;DHT22;24692;45.642;13.806;2024-02-26T00:14:06;7.60;99.90
36444;DHT22;24692;45.642;13.806;2024-02-26T00:16:32;7.60;99.90
36444;DHT22;24692;45.642;13.806;2024-02-26T00:18:58;7.60;99.90
36444;DHT22;24692;45.642;13.806;2024-02-26T00:21:24;7.70;99.90
36444;DHT22;24692;45.642;13.806;2024-02-26T00:23:50;7.60;99.90
36444;DHT22;24692;45.642;13.806;2024-02-26T00:26:16;7.70;99.90
36444;DHT22;24692;45.642;13.806;2024-02-26T00:28:42;7.60;99.90
36444;DHT22;24692;45.642;13.806;2024-02-26T00:31:07;7.60;99.90
36444;DHT22;24692;45.642;13.806;2024-02-26T00:33:33;7.60;99.90
36444;DHT22;24692;45.642;13.806;2024-02-26T00:35:59;7.60;99.90
36444;DHT22;24692;45.642;13.806;2024-02-26T00:38:24;7.70;99.90
36444;DHT22;24692;45.642;13.806;2024-02-26T00:40:50;7.70;99.90
36444;DHT22;24692;45.642;13.806;2024-02-26T00:43:15;7.70;99.90
36444;DHT22;24692;45.642;13.806;2024-02-26T00:45:41;7.70;99.90
36444;DHT22;24692;45.642;13.806;2024-02-26T00:48:08;7.80;99.90
36444;DHT22;24692;45.642;13.806;2024-02-26T00:50:39;7.70;99.90
36444;DHT22;24692;45.642;13.806;2024-02-26T00:53:07;7.70;99.90
36444;DHT22;24692;45.642;13.806;2024-02-26T00:55:34;7.70;99.90
36444;DHT22;24692;45.642;13.806;2024-02-26T00:57:59;7.60;99.90
36444;DHT22;24692;45.642;13.806;2024-02-26T01:00:25;7.60;99.90
36444;DHT22;24692;45.642;13.806;2024-02-26T01:02:51;7.60;99.90
36444;DHT22;24692;45.642;13.806;2024-02-26T01:05:18;7.50;99.90
36444;DHT22;24692;45.642;13.806;2024-02-26T01:07:45;7.60;99.90
36444;DHT22;24692;45.642;13.806;2024-02-26T01:10:11;7.50;99.90
36444;DHT22;24692;45.642;13.806;2024-02-26T01:12:37;7.50;99.90
36444;DHT22;24692;45.642;13.806;2024-02-26T01:15:03;7.50;99.90
36444;DHT22;24692;45.642;13.806;2024-02-26T01:17:29;7.40;99.90
36444;DHT22;24692;45.642;13.806;2024-02-26T01:19:58;7.50;99.90
36444;DHT22;24692;45.642;13.806;2024-02-26T01:22:24;7.50;99.90
36444;DHT22;24692;45.642;13.806;2024-02-26T01:24:51;7.50;99.90
36444;DHT22;24692;45.642;13.806;2024-02-26T01:27:26;7.50;99.90
36444;DHT22;24692;45.642;13.806;2024-02-26T01:29:52;7.40;99.90
36444;DHT22;24692;45.642;13.806;2024-02-26T01:32:19;7.50;99.90
36444;DHT22;24692;45.642;13.806;2024-02-26T01:34:46;7.40;99.90
36444;DHT22;24692;45.642;13.806;2024-02-26T01:37:12;7.40;99.90
36444;DHT22;24692;45.642;13.806;2024-02-26T01:39:38;7.40;99.90
36444;DHT22;24692;45.642;13.806;2024-02-26T01:42:10;7.30;99.90
36444;DHT22;24692;45.642;13.806;2024-02-26T01:44:37;7.30;99.90
36444;DHT22;24692;45.642;13.806;2024-02-26T01:47:07;7.30;99.90
36444;DHT22;24692;45.642;13.806;2024-02-26T01:49:35;7.30;99.90
36444;DHT22;24692;45.642;13.806;2024-02-26T01:52:06;7.30;99.90
36444;DHT22;24692;45.642;13.806;2024-02-26T01:54:35;7.40;99.90
36444;DHT22;24692;45.642;13.806;2024-02-26T01:57:03;7.40;99.90
36444;DHT22;24692;45.642;13.806;2024-02-26T01:59:29;7.30;99.90
36444;DHT22;24692;45.642;13.806;2024-02-26T02:01:57;7.30;99.90
36444;DHT22;24692;45.642;13.806;2024-02-26T02:04:24;7.40;99.90
36444;DHT22;24692;45.642;13.806;2024-02-26T02:06:50;7.30;99.90
36444;DHT22;24692;45.642;13.806;2024-02-26T02:09:18;7.30;99.90
36444;DHT22;24692;45.642;13.806;2024-02-26T02:11:43;7.30;99.90
36444;DHT22;24692;45.642;13.806;2024-02-26T02:14:10;7.30;99.90
36444;DHT22;24692;45.642;13.806;2024-02-26T02:16:36;7.30;99.90
36444;DHT22;24692;45.642;13.806;2024-02-26T02:19:01;7.20;99.90
36444;DHT22;24692;45.642;13.806;2024-02-26T02:21:27;7.20;99.90
36444;DHT22;24692;45.642;13.806;2024-02-26T02:23:53;7.10;99.90
36444;DHT22;24692;45.642;13.806;2024-02-26T02:26:19;7.10;99.90
36444;DHT22;24692;45.642;13.806;2024-02-26T02:28:46;7.00;99.90
36444;DHT22;24692;45.642;13.806;2024-02-26T02:31:12;7.00;99.90
36444;DHT22;24692;45.642;13.806;2024-02-26T02:33:38;6.90;99.90
36444;DHT22;24692;45.642;13.806;2024-02-26T02:36:04;6.90;99.90
36444;DHT22;24692;45.642;13.806;2024-02-26T02:38:34;6.90;99.90
36444;DHT22;24692;45.642;13.806;2024-02-26T02:41:00;6.80;99.90
36444;DHT22;24692;45.642;13.806;2024-02-26T02:43:25;6.80;99.90
36444;DHT22;24692;45.642;13.806;2024-02-26T02:45:51;6.70;99.90
36444;DHT22;24692;45.642;13.806;2024-02-26T02:48:17;6.80;99.90
36444;DHT22;24692;45.642;13.806;2024-02-26T02:50:42;6.80;99.90
36444;DHT22;24692;45.642;13.806;2024-02-26T02:53:08;6.70;99.90
36444;DHT22;24692;45.642;13.806;2024-02-26T02:55:34;6.80;99.90
36444;DHT22;24692;45.642;13.806;2024-02-26T02:57:59;6.70;99.90
36444;DHT22;24692;45.642;13.806;2024-02-26T03:00:25;6.70;99.90
36444;DHT22;24692;45.642;13.806;2024-02-26T03:02:51;6.70;99.90
36444;DHT22;24692;45.642;13.806;2024-02-26T03:05:17;6.60;99.90
36444;DHT22;24692;45.642;13.806;2024-02-26T03:07:42;6.50;99.90
36444;DHT22;24692;45.642;13.806;2024-02-26T03:10:08;6.50;99.90
36444;DHT22;24692;45.642;13.806;2024-02-26T03:12:34;6.50;99.90
36444;DHT22;24692;45.642;13.806;2024-02-26T03:15:00;6.50;99.90
36444;DHT22;24692;45.642;13.806;2024-02-26T03:17:28;6.50;99.90
36444;DHT22;24692;45.642;13.806;2024-02-26T03:19:54;6.50;99.90
36444;DHT22;24692;45.642;13.806;2024-02-26T03:22:20;6.60;99.90
36444;DHT22;24692;45.642;13.806;2024-02-26T03:24:46;6.60;99.90
36444;DHT22;24692;45.642;13.806;2024-02-26T03:27:12;6.70;99.90
36444;DHT22;24692;45.642;13.806;2024-02-26T03:29:38;6.70;99.90
36444;DHT22;24692;45.642;13.806;2024-02-26T03:32:05;6.60;99.90
36444;DHT22;24692;45.642;13.806;2024-02-26T03:34:32;6.60;99.90
36444;DHT22;24692;45.642;13.806;2024-02-26T03:37:00;6.60;99.90
36444;DHT22;24692;45.642;13.806;2024-02-26T03:39:25;6.60;99.90
36444;DHT22;24692;45.642;13.806;2024-02-26T03:41:52;6.60;99.90
36444;DHT22;24692;45.642;13.806;2024-02-26T03:44:18;6.60;99.90
36444;DHT22;24692;45.642;13.806;2024-02-26T03:46:44;6.70;99.90
36444;DHT22;24692;45.642;13.806;2024-02-26T03:49:10;6.70;99.90
36444;DHT22;24692;45.642;13.806;2024-02-26T03:51:36;6.70;99.90
36444;DHT22;24692;45.642;13.806;2024-02-26T03:54:03;6.70;99.90
36444;DHT22;24692;45.642;13.806;2024-02-26T03:56:28;6.80;99.90
36444;DHT22;24692;45.642;13.806;2024-02-26T03:58:54;6.80;99.90
36444;DHT22;24692;45.642;13.806;2024-02-26T04:01:20;6.80;99.90
36444;DHT22;24692;45.642;13.806;2024-02-26T04:03:46;6.80;99.90
36444;DHT22;24692;45.642;13.806;2024-02-26T04:06:11;6.80;99.90
36444;DHT22;24692;45.642;13.806;2024-02-26T04:08:40;6.80;99.90
36444;DHT22;24692;45.642;13.806;2024-02-26T04:11:06;6.90;99.90
36444;DHT22;24692;45.642;13.806;2024-02-26T04:13:36;6.90;99.90
36444;DHT22;24692;45.642;13.806;2024-02-26T04:16:04;6.90;99.90
36444;DHT22;24692;45.642;13.806;2024-02-26T04:18:31;7.00;99.90
36444;DHT22;24692;45.642;13.806;2024-02-26T04:20:57;7.10;99.90
36444;DHT22;24692;45.642;13.806;2024-02-26T04:23:23;7.10;99.90
36444;DHT22;24692;45.642;13.806;2024-02-26T04:25:49;7.00;99.90
36444;DHT22;24692;45.642;13.806;2024-02-26T04:28:14;7.00;99.90
36444;DHT22;24692;45.642;13.806;2024-02-26T04:30:41;6.90;99.90
36444;DHT22;24692;45.642;13.806;2024-02-26T04:33:07;6.90;99.90
36444;DHT22;24692;45.642;13.806;2024-02-26T04:35:32;6.90;99.90
36444;DHT22;24692;45.642;13.806;2024-02-26T04:38:00;6.90;99.90
36444;DHT22;24692;45.642;13.806;2024-02-26T04:40:26;7.00;99.90
36444;DHT22;24692;45.642;13.806;2024-02-26T04:42:52;6.90;99.90
36444;DHT22;24692;45.642;13.806;2024-02-26T04:45:17;6.90;99.90
36444;DHT22;24692;45.642;13.806;2024-02-26T04:47:43;6.90;99.90
36444;DHT22;24692;45.642;13.806;2024-02-26T04:50:09;6.90;99.90
36444;DHT22;24692;45.642;13.806;2024-02-26T04:52:34;6.90;99.90
36444;DHT22;24692;45.642;13.806;2024-02-26T04:55:01;6.90;99.90
36444;DHT22;24692;45.642;13.806;2024-02-26T04:57:28;6.90;99.90
36444;DHT22;24692;45.642;13.806;2024-02-26T04:59:53;6.90;99.90
36444;DHT22;24692;45.642;13.806;2024-02-26T05:02:19;6.90;99.90
36444;DHT22;24692;45.642;13.806;2024-02-26T05:04:45;6.80;99.90
36444;DHT22;24692;45.642;13.806;2024-02-26T05:07:10;6.80;99.90
36444;DHT22;24692;45.642;13.806;2024-02-26T05:09:37;6.80;99.90
36444;DHT22;24692;45.642;13.806;2024-02-26T05:12:04;6.80;99.90
36444;DHT22;24692;45.642;13.806;2024-02-26T05:14:29;6.80;99.90
36444;DHT22;24692;45.642;13.806;2024-02-26T05:16:55;6.90;99.90
36444;DHT22;24692;45.642;13.806;2024-02-26T05:19:21;6.80;99.90
36444;DHT22;24692;45.642;13.806;2024-02-26T05:21:47;6.80;99.90
36444;DHT22;24692;45.642;13.806;2024-02-26T05:24:14;6.70;99.90
36444;DHT22;24692;45.642;13.806;2024-02-26T05:26:43;6.70;99.90
36444;DHT22;24692;45.642;13.806;2024-02-26T05:29:08;6.70;99.90
36444;DHT22;24692;45.642;13.806;2024-02-26T05:31:34;6.70;99.90
36444;DHT22;24692;45.642;13.806;2024-02-26T05:34:00;6.70;99.90
36444;DHT22;24692;45.642;13.806;2024-02-26T05:36:25;6.60;99.90
36444;DHT22;24692;45.642;13.806;2024-02-26T05:38:51;6.60;99.90
36444;DHT22;24692;45.642;13.806;2024-02-26T05:41:17;6.70;99.90
36444;DHT22;24692;45.642;13.806;2024-02-26T05:43:54;6.70;99.90
36444;DHT22;24692;45.642;13.806;2024-02-26T05:46:20;6.80;99.90
36444;DHT22;24692;45.642;13.806;2024-02-26T05:48:48;6.90;99.90
36444;DHT22;24692;45.642;13.806;2024-02-26T05:51:14;6.80;99.90
36444;DHT22;24692;45.642;13.806;2024-02-26T05:53:41;6.90;99.90
36444;DHT22;24692;45.642;13.806;2024-02-26T05:56:06;6.90;99.90
36444;DHT22;24692;45.642;13.806;2024-02-26T05:58:32;6.90;99.90
36444;DHT22;24692;45.642;13.806;2024-02-26T06:00:58;6.90;99.90
36444;DHT22;24692;45.642;13.806;2024-02-26T06:03:23;6.90;99.90
36444;DHT22;24692;45.642;13.806;2024-02-26T06:05:49;6.90;99.90
36444;DHT22;24692;45.642;13.806;2024-02-26T06:08:15;7.00;99.90
36444;DHT22;24692;45.642;13.806;2024-02-26T06:10:40;7.00;99.90
36444;DHT22;24692;45.642;13.806;2024-02-26T06:13:06;7.10;99.90
36444;DHT22;24692;45.642;13.806;2024-02-26T06:15:32;7.20;99.90
36444;DHT22;24692;45.642;13.806;2024-02-26T06:17:57;7.20;99.90
36444;DHT22;24692;45.642;13.806;2024-02-26T06:20:23;7.20;99.90
36444;DHT22;24692;45.642;13.806;2024-02-26T06:22:49;7.20;99.90
36444;DHT22;24692;45.642;13.806;2024-02-26T06:25:14;7.30;99.90
36444;DHT22;24692;45.642;13.806;2024-02-26T06:27:40;7.30;99.90
36444;DHT22;24692;45.642;13.806;2024-02-26T06:30:06;7.40;99.90
36444;DHT22;24692;45.642;13.806;2024-02-26T06:32:32;7.40;99.90
36444;DHT22;24692;45.642;13.806;2024-02-26T06:34:58;7.50;99.90
36444;DHT22;24692;45.642;13.806;2024-02-26T06:37:23;7.90;99.90
36444;DHT22;24692;45.642;13.806;2024-02-26T06:39:50;8.50;99.90
36444;DHT22;24692;45.642;13.806;2024-02-26T06:42:17;9.50;99.90
36444;DHT22;24692;45.642;13.806;2024-02-26T06:44:43;10.00;99.90
36444;DHT22;24692;45.642;13.806;2024-02-26T06:47:08;10.40;99.90
36444;DHT22;24692;45.642;13.806;2024-02-26T06:49:34;10.60;99.90
36444;DHT22;24692;45.642;13.806;2024-02-26T06:52:00;11.10;99.90
36444;DHT22;24692;45.642;13.806;2024-02-26T06:54:25;11.70;99.90
36444;DHT22;24692;45.642;13.806;2024-02-26T06:56:51;12.40;99.90
36444;DHT22;24692;45.642;13.806;2024-02-26T06:59:17;12.90;99.90
36444;DHT22;24692;45.642;13.806;2024-02-26T07:01:42;13.40;99.90
36444;DHT22;24692;45.642;13.806;2024-02-26T07:04:08;14.00;99.90
36444;DHT22;24692;45.642;13.806;2024-02-26T07:06:36;13.90;99.90
36444;DHT22;24692;45.642;13.806;2024-02-26T07:09:02;13.30;99.90
36444;DHT22;24692;45.642;13.806;2024-02-26T07:11:29;13.10;99.90
36444;DHT22;24692;45.642;13.806;2024-02-26T07:13:54;12.90;99.90
36444;DHT22;24692;45.642;13.806;2024-02-26T07:16:20;12.70;99.90
36444;DHT22;24692;45.642;13.806;2024-02-26T07:18:46;12.00;99.90
36444;DHT22;24692;45.642;13.806;2024-02-26T07:21:12;11.70;99.90
36444;DHT22;24692;45.642;13.806;2024-02-26T07:23:39;11.70;99.90
36444;DHT22;24692;45.642;13.806;2024-02-26T07:26:06;11.70;99.90
36444;DHT22;24692;45.642;13.806;2024-02-26T07:28:33;11.40;99.90
36444;DHT22;24692;45.642;13.806;2024-02-26T07:30:59;11.30;99.90
36444;DHT22;24692;45.642;13.806;2024-02-26T07:33:25;11.10;99.90
36444;DHT22;24692;45.642;13.806;2024-02-26T07:35:50;11.00;99.90
36444;DHT22;24692;45.642;13.806;2024-02-26T07:38:16;10.90;99.90
36444;DHT22;24692;45.642;13.806;2024-02-26T07:40:42;10.70;99.90
36444;DHT22;24692;45.642;13.806;2024-02-26T07:43:07;10.70;99.90
36444;DHT22;24692;45.642;13.806;2024-02-26T07:45:34;10.90;99.90
36444;DHT22;24692;45.642;13.806;2024-02-26T07:48:02;11.00;99.90
36444;DHT22;24692;45.642;13.806;2024-02-26T07:50:27;11.40;99.90
36444;DHT22;24692;45.642;13.806;2024-02-26T07:52:53;11.70;99.90
36444;DHT22;24692;45.642;13.806;2024-02-26T07:55:19;11.60;99.90
36444;DHT22;24692;45.642;13.806;2024-02-26T07:57:45;11.50;99.90
36444;DHT22;24692;45.642;13.806;2024-02-26T08:00:11;11.70;99.90
36444;DHT22;24692;45.642;13.806;2024-02-26T08:02:37;11.60;99.90
36444;DHT22;24692;45.642;13.806;2024-02-26T08:05:02;11.40;99.90
36444;DHT22;24692;45.642;13.806;2024-02-26T08:07:28;11.50;99.90
36444;DHT22;24692;45.642;13.806;2024-02-26T08:09:54;11.70;99.90
36444;DHT22;24692;45.642;13.806;2024-02-26T08:12:20;12.10;99.90
36444;DHT22;24692;45.642;13.806;2024-02-26T08:14:46;12.40;99.90
36444;DHT22;24692;45.642;13.806;2024-02-26T08:17:11;12.70;99.90
36444;DHT22;24692;45.642;13.806;2024-02-26T08:19:37;12.70;99.90
36444;DHT22;24692;45.642;13.806;2024-02-26T08:22:03;12.60;99.90
36444;DHT22;24692;45.642;13.806;2024-02-26T08:24:28;12.70;99.90
36444;DHT22;24692;45.642;13.806;2024-02-26T08:26:54;12.70;99.90
36444;DHT22;24692;45.642;13.806;2024-02-26T08:29:20;12.90;99.90
36444;DHT22;24692;45.642;13.806;2024-02-26T08:31:46;13.00;99.90
36444;DHT22;24692;45.642;13.806;2024-02-26T08:34:12;13.20;99.90
36444;DHT22;24692;45.642;13.806;2024-02-26T08:36:40;13.70;99.90
36444;DHT22;24692;45.642;13.806;2024-02-26T08:39:06;14.30;99.90
36444;DHT22;24692;45.642;13.806;2024-02-26T08:41:34;15.00;99.90
36444;DHT22;24692;45.642;13.806;2024-02-26T08:44:00;15.30;99.90
36444;DHT22;24692;45.642;13.806;2024-02-26T08:46:26;15.30;99.90
36444;DHT22;24692;45.642;13.806;2024-02-26T08:48:51;15.00;99.90
36444;DHT22;24692;45.642;13.806;2024-02-26T08:51:17;14.70;99.90
36444;DHT22;24692;45.642;13.806;2024-02-26T08:53:43;15.10;99.90
36444;DHT22;24692;45.642;13.806;2024-02-26T08:56:08;15.50;99.90
36444;DHT22;24692;45.642;13.806;2024-02-26T08:58:34;15.00;99.90
36444;DHT22;24692;45.642;13.806;2024-02-26T09:01:00;14.60;99.90
36444;DHT22;24692;45.642;13.806;2024-02-26T09:03:26;14.20;99.90
36444;DHT22;24692;45.642;13.806;2024-02-26T09:05:51;13.90;99.90
36444;DHT22;24692;45.642;13.806;2024-02-26T09:08:17;13.70;99.90
36444;DHT22;24692;45.642;13.806;2024-02-26T09:10:43;13.80;99.90
36444;DHT22;24692;45.642;13.806;2024-02-26T09:13:08;13.70;99.90
36444;DHT22;24692;45.642;13.806;2024-02-26T09:15:34;14.00;99.90
36444;DHT22;24692;45.642;13.806;2024-02-26T09:18:00;14.30;99.90
36444;DHT22;24692;45.642;13.806;2024-02-26T09:20:25;14.20;99.90
36444;DHT22;24692;45.642;13.806;2024-02-26T09:22:51;14.50;99.90
36444;DHT22;24692;45.642;13.806;2024-02-26T09:25:17;15.60;99.90
36444;DHT22;24692;45.642;13.806;2024-02-26T09:27:43;16.80;99.90
36444;DHT22;24692;45.642;13.806;2024-02-26T09:30:10;17.10;99.90
36444;DHT22;24692;45.642;13.806;2024-02-26T09:32:36;17.00;99.90
36444;DHT22;24692;45.642;13.806;2024-02-26T09:35:02;16.00;99.90
36444;DHT22;24692;45.642;13.806;2024-02-26T09:37:28;15.60;99.90
36444;DHT22;24692;45.642;13.806;2024-02-26T09:39:54;15.20;99.90
36444;DHT22;24692;45.642;13.806;2024-02-26T09:42:20;14.70;99.90
36444;DHT22;24692;45.642;13.806;2024-02-26T09:44:49;14.50;99.90
36444;DHT22;24692;45.642;13.806;2024-02-26T09:47:17;14.40;99.90
36444;DHT22;24692;45.642;13.806;2024-02-26T09:49:43;14.20;99.90
36444;DHT22;24692;45.642;13.806;2024-02-26T09:52:09;14.10;99.90
36444;DHT22;24692;45.642;13.806;2024-02-26T09:54:35;13.90;99.90
36444;DHT22;24692;45.642;13.806;2024-02-26T09:57:03;13.60;99.90
36444;DHT22;24692;45.642;13.806;2024-02-26T09:59:39;13.50;99.90
36444;DHT22;24692;45.642;13.806;2024-02-26T10:02:13;13.30;99.90
36444;DHT22;24692;45.642;13.806;2024-02-26T10:04:40;13.30;99.90
36444;DHT22;24692;45.642;13.806;2024-02-26T10:07:14;13.20;99.90
36444;DHT22;24692;45.642;13.806;2024-02-26T10:09:40;13.30;99.90
36444;DHT22;24692;45.642;13.806;2024-02-26T10:12:08;13.40;99.90
36444;DHT22;24692;45.642;13.806;2024-02-26T10:14:35;13.40;99.90
36444;DHT22;24692;45.642;13.806;2024-02-26T10:17:02;13.60;99.90
36444;DHT22;24692;45.642;13.806;2024-02-26T10:19:28;13.70;99.90
36444;DHT22;24692;45.642;13.806;2024-02-26T10:21:58;14.00;99.90
36444;DHT22;24692;45.642;13.806;2024-02-26T10:24:28;14.00;99.90
36444;DHT22;24692;45.642;13.806;2024-02-26T10:26:54;14.00;99.90
36444;DHT22;24692;45.642;13.806;2024-02-26T10:29:21;14.20;99.90
36444;DHT22;24692;45.642;13.806;2024-02-26T10:31:48;14.20;99.90
36444;DHT22;24692;45.642;13.806;2024-02-26T10:34:15;14.20;99.90
36444;DHT22;24692;45.642;13.806;2024-02-26T10:36:42;14.20;99.90
36444;DHT22;24692;45.642;13.806;2024-02-26T10:39:07;14.00;99.90
36444;DHT22;24692;45.642;13.806;2024-02-26T10:41:34;14.00;99.90
36444;DHT22;24692;45.642;13.806;2024-02-26T10:44:00;13.70;99.90
36444;DHT22;24692;45.642;13.806;2024-02-26T10:46:26;13.30;99.90
36444;DHT22;24692;45.642;13.806;2024-02-26T10:48:52;13.00;99.90
36444;DHT22;24692;45.642;13.806;2024-02-26T10:51:29;12.90;99.90
36444;DHT22;24692;45.642;13.806;2024-02-26T10:53:59;13.30;99.90
36444;DHT22;24692;45.642;13.806;2024-02-26T10:56:28;13.40;99.90
36444;DHT22;24692;45.642;13.806;2024-02-26T10:58:58;13.50;99.90
36444;DHT22;24692;45.642;13.806;2024-02-26T11:01:24;13.60;99.90
36444;DHT22;24692;45.642;13.806;2024-02-26T11:04:04;13.50;99.90
36444;DHT22;24692;45.642;13.806;2024-02-26T11:06:31;13.40;99.90
36444;DHT22;24692;45.642;13.806;2024-02-26T11:09:01;13.60;99.90
36444;DHT22;24692;45.642;13.806;2024-02-26T11:11:27;14.10;99.90
36444;DHT22;24692;45.642;13.806;2024-02-26T11:13:54;14.90;99.90
36444;DHT22;24692;45.642;13.806;2024-02-26T11:16:21;15.00;99.90
36444;DHT22;24692;45.642;13.806;2024-02-26T11:18:48;15.40;99.90
36444;DHT22;24692;45.642;13.806;2024-02-26T11:21:18;15.90;99.90
36444;DHT22;24692;45.642;13.806;2024-02-26T11:23:47;16.30;99.90
36444;DHT22;24692;45.642;13.806;2024-02-26T11:26:15;16.30;99.90
36444;DHT22;24692;45.642;13.806;2024-02-26T11:28:42;16.30;99.90
36444;DHT22;24692;45.642;13.806;2024-02-26T11:31:08;16.00;99.90
36444;DHT22;24692;45.642;13.806;2024-02-26T11:33:35;16.50;99.90
36444;DHT22;24692;45.642;13.806;2024-02-26T11:36:07;16.70;99.90
36444;DHT22;24692;45.642;13.806;2024-02-26T11:38:33;17.10;99.90
36444;DHT22;24692;45.642;13.806;2024-02-26T11:40:59;17.10;99.90
36444;DHT22;24692;45.642;13.806;2024-02-26T11:44:00;16.90;99.90
36444;DHT22;24692;45.642;13.806;2024-02-26T11:46:31;17.10;99.90
36444;DHT22;24692;45.642;13.806;2024-02-26T11:48:59;16.60;99.90
36444;DHT22;24692;45.642;13.806;2024-02-26T11:51:35;16.30;99.90
36444;DHT22;24692;45.642;13.806;2024-02-26T11:54:01;16.90;99.90
36444;DHT22;24692;45.642;13.806;2024-02-26T11:56:27;16.80;99.90
36444;DHT22;24692;45.642;13.806;2024-02-26T11:59:04;16.60;99.90
36444;DHT22;24692;45.642;13.806;2024-02-26T12:01:43;17.20;99.90
36444;DHT22;24692;45.642;13.806;2024-02-26T12:04:13;17.10;99.90
36444;DHT22;24692;45.642;13.806;2024-02-26T12:06:43;17.80;99.90
36444;DHT22;24692;45.642;13.806;2024-02-26T12:09:10;17.90;99.90
36444;DHT22;24692;45.642;13.806;2024-02-26T12:11:40;17.90;99.90
36444;DHT22;24692;45.642;13.806;2024-02-26T12:14:08;17.50;99.90
36444;DHT22;24692;45.642;13.806;2024-02-26T12:16:40;16.80;99.90
36444;DHT22;24692;45.642;13.806;2024-02-26T12:19:09;15.90;99.90
36444;DHT22;24692;45.642;13.806;2024-02-26T12:21:36;15.60;99.90
36444;DHT22;24692;45.642;13.806;2024-02-26T12:24:14;15.10;99.90
36444;DHT22;24692;45.642;13.806;2024-02-26T12:26:41;14.80;99.90
36444;DHT22;24692;45.642;13.806;2024-02-26T12:29:08;14.60;99.90
36444;DHT22;24692;45.642;13.806;2024-02-26T12:31:33;14.60;99.90
36444;DHT22;24692;45.642;13.806;2024-02-26T12:34:00;14.50;99.90
36444;DHT22;24692;45.642;13.806;2024-02-26T12:36:26;14.60;99.90
36444;DHT22;24692;45.642;13.806;2024-02-26T12:38:52;14.40;99.90
36444;DHT22;24692;45.642;13.806;2024-02-26T12:41:18;14.20;99.90
36444;DHT22;24692;45.642;13.806;2024-02-26T12:43:44;14.30;99.90
36444;DHT22;24692;45.642;13.806;2024-02-26T12:46:10;14.20;99.90
36444;DHT22;24692;45.642;13.806;2024-02-26T12:48:37;14.10;99.90
36444;DHT22;24692;45.642;13.806;2024-02-26T12:51:03;14.30;99.90
36444;DHT22;24692;45.642;13.806;2024-02-26T12:53:30;14.30;99.90
36444;DHT22;24692;45.642;13.806;2024-02-26T12:55:55;14.10;99.90
36444;DHT22;24692;45.642;13.806;2024-02-26T12:58:22;14.20;99.90
36444;DHT22;24692;45.642;13.806;2024-02-26T13:00:54;14.40;99.90
36444;DHT22;24692;45.642;13.806;2024-02-26T13:03:20;14.80;99.90
36444;DHT22;24692;45.642;13.806;2024-02-26T13:05:48;14.70;99.90
36444;DHT22;24692;45.642;13.806;2024-02-26T13:08:22;14.30;99.90
36444;DHT22;24692;45.642;13.806;2024-02-26T13:10:49;14.00;99.90
36444;DHT22;24692;45.642;13.806;2024-02-26T13:13:20;14.00;99.90
36444;DHT22;24692;45.642;13.806;2024-02-26T13:15:47;13.90;99.90
36444;DHT22;24692;45.642;13.806;2024-02-26T13:18:16;14.30;99.90
36444;DHT22;24692;45.642;13.806;2024-02-26T13:20:44;14.50;99.90
36444;DHT22;24692;45.642;13.806;2024-02-26T13:23:13;14.30;99.90
36444;DHT22;24692;45.642;13.806;2024-02-26T13:25:57;14.40;99.90
36444;DHT22;24692;45.642;13.806;2024-02-26T13:28:24;14.60;99.90
36444;DHT22;24692;45.642;13.806;2024-02-26T13:30:57;14.50;99.90
36444;DHT22;24692;45.642;13.806;2024-02-26T13:33:24;14.50;99.90
36444;DHT22;24692;45.642;13.806;2024-02-26T13:35:51;14.70;99.90
36444;DHT22;24692;45.642;13.806;2024-02-26T13:38:23;14.70;99.90
36444;DHT22;24692;45.642;13.806;2024-02-26T13:40:50;14.60;99.90
36444;DHT22;24692;45.642;13.806;2024-02-26T13:43:16;14.70;99.90
36444;DHT22;24692;45.642;13.806;2024-02-26T13:45:42;14.80;99.90
36444;DHT22;24692;45.642;13.806;2024-02-26T13:48:10;14.80;99.90
36444;DHT22;24692;45.642;13.806;2024-02-26T13:50:40;14.70;99.90
36444;DHT22;24692;45.642;13.806;2024-02-26T13:53:09;14.80;99.90
36444;DHT22;24692;45.642;13.806;2024-02-26T13:55:36;14.80;99.90
36444;DHT22;24692;45.642;13.806;2024-02-26T13:58:02;14.70;99.90
36444;DHT22;24692;45.642;13.806;2024-02-26T14:00:31;14.70;99.90
36444;DHT22;24692;45.642;13.806;2024-02-26T14:02:59;14.40;99.90
36444;DHT22;24692;45.642;13.806;2024-02-26T14:05:25;14.30;99.90
36444;DHT22;24692;45.642;13.806;2024-02-26T14:07:52;14.50;99.90
36444;DHT22;24692;45.642;13.806;2024-02-26T14:10:19;14.70;99.90
36444;DHT22;24692;45.642;13.806;2024-02-26T14:12:47;14.60;99.90
36444;DHT22;24692;45.642;13.806;2024-02-26T14:15:13;14.50;99.90
36444;DHT22;24692;45.642;13.806;2024-02-26T14:17:39;14.40;99.90
36444;DHT22;24692;45.642;13.806;2024-02-26T14:20:06;14.10;99.90
36444;DHT22;24692;45.642;13.806;2024-02-26T14:22:34;14.00;99.90
36444;DHT22;24692;45.642;13.806;2024-02-26T14:25:01;13.90;99.90
36444;DHT22;24692;45.642;13.806;2024-02-26T14:27:27;13.80;99.90
36444;DHT22;24692;45.642;13.806;2024-02-26T14:29:54;13.70;99.90
36444;DHT22;24692;45.642;13.806;2024-02-26T14:32:20;13.60;99.90
36444;DHT22;24692;45.642;13.806;2024-02-26T14:34:46;13.60;99.90
36444;DHT22;24692;45.642;13.806;2024-02-26T14:37:12;13.50;99.90
36444;DHT22;24692;45.642;13.806;2024-02-26T14:39:39;13.50;99.90
36444;DHT22;24692;45.642;13.806;2024-02-26T14:42:05;13.50;99.90
36444;DHT22;24692;45.642;13.806;2024-02-26T14:44:32;13.50;99.90
36444;DHT22;24692;45.642;13.806;2024-02-26T14:46:58;13.40;99.90
36444;DHT22;24692;45.642;13.806;2024-02-26T14:49:24;13.40;99.90
36444;DHT22;24692;45.642;13.806;2024-02-26T14:51:51;13.40;99.90
36444;DHT22;24692;45.642;13.806;2024-02-26T14:54:19;13.50;99.90
36444;DHT22;24692;45.642;13.806;2024-02-26T14:56:48;13.50;99.90
36444;DHT22;24692;45.642;13.806;2024-02-26T14:59:15;13.60;99.90
36444;DHT22;24692;45.642;13.806;2024-02-26T15:01:41;13.80;99.90
36444;DHT22;24692;45.642;13.806;2024-02-26T15:04:10;14.00;99.90
36444;DHT22;24692;45.642;13.806;2024-02-26T15:06:38;14.10;99.90
36444;DHT22;24692;45.642;13.806;2024-02-26T15:09:07;14.10;99.90
36444;DHT22;24692;45.642;13.806;2024-02-26T15:11:34;14.10;99.90
36444;DHT22;24692;45.642;13.806;2024-02-26T15:14:05;14.10;99.90
36444;DHT22;24692;45.642;13.806;2024-02-26T15:16:31;14.10;99.90
36444;DHT22;24692;45.642;13.806;2024-02-26T15:18:56;14.10;99.90
36444;DHT22;24692;45.642;13.806;2024-02-26T15:21:22;14.10;99.90